Terminal Aerodrome Forecast
Issued by NWS Wichita, KS

Home | Current Version | Previous Version | Text Only | Print | Product List | Glossary On
Versions: 1 2 3 4 5 6 7 8 9 10 11 12 13 14 15 16 17 18 19 20 21 22 23 24 25 26 27 28 29 30 31 32 33 34 35 36 37 38 39 40 41 42 43 44
000
FTUS43 KICT 212337
TAFICT
TAF
KICT 212337Z 2200/2224 15014G20KT P6SM VCTS SCT040CB BKN080
     FM220600 17014G20KT P6SM -TSRA FEW025 OVC040CB
      TEMPO 2208/2212 5SM TSRA BR OVC025CB
     FM221200 22013KT P6SM VCSH OVC025
     FM221800 31012KT P6SM BKN035
     FM222200 35010KT P6SM SCT200=

USA.gov is the U.S. government's official web portal to all federal, state and local government web resources and services.